Time;durP1;ratioP1;P1;durP2;ratioP2;P2;SDS_P1;SDS_P2;PMS_P1;PMS_P2;Temp;Humidity;BMP_temperature;BMP_pressure;BME280_temperature;BME280_humidity;BME280_pressure;Samples;Min_cycle;Max_cycle;Signal;HPM_P1;HPM_P2
2021/09/24 00:01:12;;;;;;;0.40;0.30;;;;;;;15.21;96.88;100443.13;4986852;28;20454;-53
2021/09/24 00:03:39;;;;;;;0.50;0.40;;;;;;;15.25;96.96;100441.19;5007173;28;20482;-53
2021/09/24 00:06:06;;;;;;;0.40;0.20;;;;;;;15.54;96.68;100434.50;4990414;28;20460;-53
2021/09/24 00:08:33;;;;;;;0.40;0.20;;;;;;;15.53;96.18;100427.41;4999995;28;20551;-53
2021/09/24 00:10:59;;;;;;;0.40;0.20;;;;;;;15.54;95.40;100430.00;5006409;28;20453;-53
2021/09/24 00:13:26;;;;;;;1.23;1.23;;;;;;;15.48;96.08;100430.25;5006552;28;20989;-53
2021/09/24 00:15:53;;;;;;;0.80;0.63;;;;;;;15.60;95.37;100427.06;5001080;28;20448;-53
2021/09/24 00:18:20;;;;;;;0.40;0.20;;;;;;;15.54;95.47;100419.28;4999797;28;20445;-54
2021/09/24 00:20:47;;;;;;;0.40;0.20;;;;;;;15.30;95.97;100423.97;5005782;28;20481;-53
2021/09/24 00:23:14;;;;;;;0.43;0.30;;;;;;;14.76;98.11;100430.84;4998099;28;20477;-53
2021/09/24 00:25:40;;;;;;;1.67;0.67;;;;;;;14.81;98.16;100428.84;5004743;28;20453;-53
2021/09/24 00:28:08;;;;;;;0.80;0.80;;;;;;;14.33;100.00;100431.78;5006503;28;20538;-53
2021/09/24 00:30:36;;;;;;;0.40;0.20;;;;;;;14.12;100.00;100428.19;5001185;28;20448;-52
2021/09/24 00:33:03;;;;;;;0.40;0.30;;;;;;;14.41;100.00;100435.00;4999456;28;20469;-52
2021/09/24 00:35:29;;;;;;;0.40;0.40;;;;;;;14.22;100.00;100431.34;5005337;28;20457;-52
2021/09/24 00:37:56;;;;;;;1.07;0.70;;;;;;;14.30;100.00;100437.25;5006363;28;20448;-52
2021/09/24 00:40:22;;;;;;;0.40;0.30;;;;;;;14.28;100.00;100438.25;5000943;28;20472;-53
2021/09/24 00:42:49;;;;;;;0.40;0.20;;;;;;;14.25;100.00;100431.22;4999854;28;20465;-53
2021/09/24 00:45:16;;;;;;;0.40;0.30;;;;;;;13.95;100.00;100441.34;5004923;28;20460;-52
2021/09/24 00:47:42;;;;;;;0.40;0.20;;;;;;;13.87;100.00;100432.78;5006421;28;20449;-53
2021/09/24 00:50:10;;;;;;;0.40;0.20;;;;;;;13.57;100.00;100432.19;5007039;28;20460;-53
2021/09/24 00:52:36;;;;;;;0.37;0.20;;;;;;;13.74;100.00;100420.84;5000776;28;21020;-53
2021/09/24 00:55:04;;;;;;;0.40;0.30;;;;;;;13.80;100.00;100428.59;5004861;28;20453;-53
2021/09/24 00:57:31;;;;;;;0.40;0.20;;;;;;;13.86;100.00;100423.91;5003913;28;20463;-53
2021/09/24 00:59:58;;;;;;;0.40;0.20;;;;;;;13.75;100.00;100418.09;4999440;28;20472;-53
2021/09/24 01:02:25;;;;;;;0.40;0.20;;;;;;;13.73;100.00;100424.44;5001508;28;20508;-53
2021/09/24 01:04:52;;;;;;;1.73;0.60;;;;;;;13.48;100.00;100425.38;5006128;28;20473;-53
2021/09/24 01:07:19;;;;;;;0.43;0.30;;;;;;;13.32;100.00;100413.56;5004187;28;20476;-52
2021/09/24 01:09:46;;;;;;;0.40;0.20;;;;;;;13.54;100.00;100425.13;4999371;28;20520;-53
2021/09/24 01:12:13;;;;;;;0.40;0.40;;;;;;;13.11;100.00;100427.66;5000867;28;20453;-53
2021/09/24 01:14:39;;;;;;;0.40;0.20;;;;;;;13.03;100.00;100419.94;5005941;28;20512;-53
2021/09/24 01:17:06;;;;;;;0.40;0.20;;;;;;;13.03;100.00;100425.28;5004804;28;20453;-53
2021/09/24 01:19:32;;;;;;;0.40;0.30;;;;;;;12.94;100.00;100429.16;4999223;28;20815;-52
2021/09/24 01:22:00;;;;;;;0.40;0.20;;;;;;;12.77;100.00;100425.34;5000710;28;20939;-52
2021/09/24 01:24:27;;;;;;;0.40;0.27;;;;;;;12.78;100.00;100419.97;5001362;28;20472;-53
2021/09/24 01:26:55;;;;;;;0.40;0.20;;;;;;;12.95;100.00;100428.22;5000304;28;20475;-53
2021/09/24 01:29:25;;;;;;;0.40;0.27;;;;;;;12.87;100.00;100422.28;5005846;28;20493;-53
2021/09/24 01:31:54;;;;;;;0.40;0.20;;;;;;;12.87;100.00;100421.41;4994817;28;20810;-53
2021/09/24 01:34:21;;;;;;;0.40;0.20;;;;;;;12.91;100.00;100423.06;5005753;28;20476;-53
2021/09/24 01:36:48;;;;;;;0.40;0.20;;;;;;;12.70;100.00;100414.88;5006468;28;20522;-54
2021/09/24 01:39:14;;;;;;;0.33;0.20;;;;;;;12.85;100.00;100413.47;4990521;28;20449;-53
2021/09/24 01:41:44;;;;;;;0.33;0.20;;;;;;;12.86;100.00;100411.66;5002880;28;20512;-53
2021/09/24 01:44:11;;;;;;;0.40;0.30;;;;;;;12.84;100.00;100413.53;5008840;28;20512;-53
2021/09/24 01:46:39;;;;;;;0.40;0.20;;;;;;;12.68;100.00;100419.41;5009446;28;20444;-52
2021/09/24 01:49:07;;;;;;;0.57;0.57;;;;;;;12.76;100.00;100413.81;5003805;28;20492;-53
2021/09/24 01:51:36;;;;;;;0.40;0.30;;;;;;;12.92;100.00;100406.13;5005707;28;20926;-53
2021/09/24 01:54:04;;;;;;;0.40;0.20;;;;;;;13.10;100.00;100410.78;5008418;28;20469;-54
2021/09/24 01:56:30;;;;;;;1.83;1.07;;;;;;;13.13;100.00;100408.00;5008962;28;20520;-52
2021/09/24 01:58:57;;;;;;;0.40;0.20;;;;;;;13.13;100.00;100402.66;5007961;28;20935;-54
2021/09/24 02:01:24;;;;;;;0.40;0.20;;;;;;;13.09;100.00;100410.84;5009083;28;20953;-54
2021/09/24 02:03:51;;;;;;;0.30;0.20;;;;;;;13.13;100.00;100407.13;5004364;28;21015;-54
2021/09/24 02:06:18;;;;;;;0.30;0.20;;;;;;;13.02;100.00;100405.75;5002346;28;20453;-54
2021/09/24 02:08:45;;;;;;;0.50;0.50;;;;;;;13.06;100.00;100398.47;5007119;28;20489;-54
2021/09/24 02:11:11;;;;;;;0.37;0.20;;;;;;;13.04;100.00;100397.69;5009142;28;20464;-54
2021/09/24 02:13:39;;;;;;;0.40;0.20;;;;;;;12.82;100.00;100402.03;5004513;28;20488;-54
2021/09/24 02:16:08;;;;;;;0.50;0.50;;;;;;;12.76;100.00;100397.81;5001020;28;20457;-54
2021/09/24 02:18:35;;;;;;;0.40;0.20;;;;;;;12.75;100.00;100399.59;5006096;28;20548;-53
2021/09/24 02:21:02;;;;;;;0.40;0.20;;;;;;;12.72;100.00;100394.34;5008803;28;20448;-53
2021/09/24 02:23:29;;;;;;;0.30;0.20;;;;;;;12.68;100.00;100402.53;5004719;28;21016;-53
2021/09/24 02:25:55;;;;;;;0.40;0.20;;;;;;;12.48;100.00;100405.03;5001889;28;20503;-54
2021/09/24 02:28:22;;;;;;;0.50;0.30;;;;;;;12.10;100.00;100397.41;5006064;28;20959;-54
2021/09/24 02:30:48;;;;;;;0.40;0.20;;;;;;;12.40;100.00;100405.28;5007252;28;21003;-54
2021/09/24 02:33:15;;;;;;;0.40;0.20;;;;;;;12.28;100.00;100400.38;5004884;28;20472;-54
2021/09/24 02:35:42;;;;;;;0.33;0.20;;;;;;;12.07;100.00;100380.66;5002148;28;20457;-54
2021/09/24 02:38:08;;;;;;;0.30;0.20;;;;;;;12.25;100.00;100404.00;5004725;28;20458;-54
2021/09/24 02:40:35;;;;;;;0.30;0.30;;;;;;;12.31;100.00;100392.25;5008600;28;20465;-54
2021/09/24 02:43:03;;;;;;;0.40;0.20;;;;;;;12.38;100.00;100394.69;5004736;28;20504;-54
2021/09/24 02:45:30;;;;;;;0.30;0.20;;;;;;;12.15;100.00;100394.56;5001634;28;20453;-54
2021/09/24 02:47:57;;;;;;;0.30;0.20;;;;;;;12.26;100.00;100394.22;5004917;28;20462;-54
2021/09/24 02:50:23;;;;;;;0.30;0.20;;;;;;;12.29;100.00;100400.31;5005152;28;20523;-54
2021/09/24 02:52:50;;;;;;;3.03;0.80;;;;;;;12.20;100.00;100397.06;5014987;28;20455;-54
2021/09/24 02:55:19;;;;;;;0.40;0.20;;;;;;;12.16;100.00;100393.66;5001534;28;20851;-54
2021/09/24 02:57:47;;;;;;;0.30;0.20;;;;;;;12.22;100.00;100395.25;5011931;28;20453;-54
2021/09/24 03:00:14;;;;;;;0.30;0.20;;;;;;;12.24;100.00;100394.28;5001876;28;20445;-54
2021/09/24 03:02:40;;;;;;;0.40;0.30;;;;;;;12.17;100.00;100392.72;5003064;28;20453;-54
2021/09/24 03:05:08;;;;;;;0.30;0.20;;;;;;;12.26;100.00;100403.09;5007996;28;20460;-54
2021/09/24 03:07:35;;;;;;;0.30;0.20;;;;;;;12.10;100.00;100396.53;5007104;28;20518;-54
2021/09/24 03:10:03;;;;;;;0.37;0.30;;;;;;;12.15;100.00;100405.22;5001438;28;20484;-54
2021/09/24 03:12:30;;;;;;;0.30;0.20;;;;;;;12.22;100.00;100405.91;5000449;28;20805;-54
2021/09/24 03:14:56;;;;;;;0.30;0.20;;;;;;;12.24;100.00;100394.28;5013870;28;20480;-54
2021/09/24 03:17:23;;;;;;;0.30;0.20;;;;;;;12.26;100.00;100392.44;5001937;28;20449;-54
2021/09/24 03:19:50;;;;;;;0.30;0.20;;;;;;;12.27;100.00;100394.16;5007692;28;20445;-54
2021/09/24 03:22:16;;;;;;;0.40;0.20;;;;;;;12.12;100.00;100395.56;5007729;28;20463;-53
2021/09/24 03:24:43;;;;;;;0.30;0.20;;;;;;;12.11;100.00;100398.28;4988420;28;20568;-54
2021/09/24 03:27:12;;;;;;;0.30;0.20;;;;;;;12.08;100.00;100398.38;5000833;28;20457;-55
2021/09/24 03:29:39;;;;;;;0.50;0.50;;;;;;;12.04;100.00;100400.25;4987915;28;20543;-53
2021/09/24 03:32:06;;;;;;;0.30;0.20;;;;;;;12.02;100.00;100399.44;5001012;28;20453;-54
2021/09/24 03:34:33;;;;;;;0.30;0.30;;;;;;;11.89;100.00;100392.75;5006661;28;20511;-54
2021/09/24 03:37:00;;;;;;;0.30;0.20;;;;;;;11.95;100.00;100397.03;5007637;28;20526;-54
2021/09/24 03:39:27;;;;;;;0.30;0.20;;;;;;;12.00;100.00;100393.28;5001685;28;20836;-54
2021/09/24 03:41:55;;;;;;;0.30;0.20;;;;;;;11.80;100.00;100387.75;5000405;28;20460;-54
2021/09/24 03:44:22;;;;;;;0.30;0.20;;;;;;;11.71;100.00;100396.00;5006237;28;20505;-54
2021/09/24 03:46:49;;;;;;;1.07;1.03;;;;;;;11.75;100.00;100403.81;5007278;28;20476;-54
2021/09/24 03:49:15;;;;;;;0.30;0.20;;;;;;;11.71;100.00;100404.84;5000910;28;20527;-53
2021/09/24 03:51:42;;;;;;;0.30;0.20;;;;;;;11.70;100.00;100407.56;5008801;28;20449;-54
2021/09/24 03:54:09;;;;;;;0.30;0.20;;;;;;;11.79;100.00;100394.00;5005175;28;20492;-54
2021/09/24 03:56:35;;;;;;;0.30;0.20;;;;;;;11.77;100.00;100401.97;5005520;28;20453;-53
2021/09/24 03:59:02;;;;;;;0.30;0.20;;;;;;;11.74;100.00;100406.53;5005448;28;20446;-54
2021/09/24 04:01:29;;;;;;;0.37;0.27;;;;;;;11.70;100.00;100408.44;5005962;28;20453;-54
2021/09/24 04:03:56;;;;;;;0.30;0.20;;;;;;;11.80;100.00;100411.72;5002632;28;20504;-54
2021/09/24 04:06:22;;;;;;;0.40;0.40;;;;;;;11.66;100.00;100411.25;5000138;28;20862;-54
2021/09/24 04:08:49;;;;;;;2.87;1.23;;;;;;;11.79;100.00;100409.97;5004486;28;20449;-54
2021/09/24 04:11:16;;;;;;;0.30;0.20;;;;;;;11.43;100.00;100404.84;5006842;28;20803;-53
2021/09/24 04:13:42;;;;;;;0.40;0.40;;;;;;;11.38;100.00;100408.56;5002200;28;20495;-54
2021/09/24 04:16:09;;;;;;;0.60;0.60;;;;;;;11.49;100.00;100409.94;4998594;28;20466;-54
2021/09/24 04:18:35;;;;;;;1.83;0.97;;;;;;;11.40;100.00;100414.69;5004493;28;20982;-53
2021/09/24 04:21:02;;;;;;;0.30;0.20;;;;;;;11.54;100.00;100405.38;5006401;28;20448;-54
2021/09/24 04:23:29;;;;;;;0.30;0.20;;;;;;;11.44;100.00;100398.59;5002108;28;20511;-54
2021/09/24 04:25:56;;;;;;;0.30;0.20;;;;;;;11.45;100.00;100407.44;5000174;28;20535;-54
2021/09/24 04:28:23;;;;;;;0.30;0.20;;;;;;;11.41;100.00;100413.78;5003997;28;20453;-54
2021/09/24 04:30:50;;;;;;;0.30;0.20;;;;;;;11.26;100.00;100413.31;5006226;28;20508;-53
2021/09/24 04:33:16;;;;;;;0.30;0.20;;;;;;;11.39;100.00;100403.19;5002438;28;20505;-54
2021/09/24 04:35:43;;;;;;;0.30;0.20;;;;;;;11.34;100.00;100406.88;4999309;28;20500;-54
2021/09/24 04:38:10;;;;;;;0.30;0.20;;;;;;;11.21;100.00;100403.72;5002570;28;20441;-53
2021/09/24 04:40:37;;;;;;;0.47;0.47;;;;;;;11.36;100.00;100408.56;5006163;28;20453;-53
2021/09/24 04:43:04;;;;;;;0.30;0.20;;;;;;;11.39;100.00;100410.31;5001517;28;20508;-54
2021/09/24 04:45:31;;;;;;;0.30;0.20;;;;;;;11.25;100.00;100408.06;4999089;28;20936;-54
2021/09/24 04:47:58;;;;;;;0.30;0.20;;;;;;;11.28;100.00;100414.16;5003052;28;20914;-53
2021/09/24 04:50:25;;;;;;;0.33;0.23;;;;;;;11.28;100.00;100414.16;5002589;28;20633;-54
2021/09/24 04:52:52;;;;;;;0.30;0.20;;;;;;;11.16;100.00;100408.31;5012672;28;20448;-54
2021/09/24 04:55:19;;;;;;;0.30;0.20;;;;;;;11.26;100.00;100415.13;4999113;28;20491;-54
2021/09/24 04:57:45;;;;;;;0.87;0.80;;;;;;;11.24;100.00;100406.31;5009971;28;20452;-54
2021/09/24 05:00:12;;;;;;;0.33;0.20;;;;;;;11.13;100.00;100406.63;4999054;28;20483;-54
2021/09/24 05:02:40;;;;;;;0.30;0.20;;;;;;;11.20;100.00;100418.81;5000779;28;20942;-54
2021/09/24 05:05:08;;;;;;;0.40;0.30;;;;;;;11.27;100.00;100416.84;5005696;28;20888;-54
2021/09/24 05:07:36;;;;;;;0.30;0.20;;;;;;;11.09;100.00;100407.59;5005047;28;21024;-54
2021/09/24 05:10:04;;;;;;;0.30;0.20;;;;;;;11.14;100.00;100428.78;4999219;28;20961;-55
2021/09/24 05:12:31;;;;;;;0.30;0.20;;;;;;;11.12;100.00;100425.28;4999160;28;20457;-54
2021/09/24 05:14:58;;;;;;;0.30;0.20;;;;;;;11.10;100.00;100421.78;5004903;28;20528;-53
2021/09/24 05:17:25;;;;;;;0.30;0.20;;;;;;;11.17;100.00;100423.34;5005905;28;20873;-53
2021/09/24 05:19:52;;;;;;;0.30;0.20;;;;;;;11.25;100.00;100421.34;4999401;28;20572;-54
2021/09/24 05:22:18;;;;;;;4.93;1.23;;;;;;;11.28;100.00;100426.59;4999106;28;20507;-54
2021/09/24 05:24:45;;;;;;;0.30;0.20;;;;;;;11.24;100.00;100431.13;4986486;28;20492;-53
2021/09/24 05:27:12;;;;;;;0.30;0.20;;;;;;;11.28;100.00;100430.13;4999167;28;20457;-54
2021/09/24 05:29:39;;;;;;;0.43;0.40;;;;;;;11.28;100.00;100423.91;5005641;28;21044;-53
2021/09/24 05:32:06;;;;;;;0.30;0.20;;;;;;;11.26;100.00;100425.75;4995915;28;20453;-55
2021/09/24 05:34:32;;;;;;;0.30;0.20;;;;;;;11.12;100.00;100425.28;4987510;28;20473;-54
2021/09/24 05:36:59;;;;;;;0.30;0.20;;;;;;;11.17;100.00;100421.56;4999121;28;20535;-53
2021/09/24 05:39:25;;;;;;;0.40;0.40;;;;;;;11.11;100.00;100431.53;5005506;28;20970;-53
2021/09/24 05:41:54;;;;;;;0.30;0.30;;;;;;;11.24;100.00;100424.94;5005668;28;21029;-54
2021/09/24 05:44:20;;;;;;;0.30;0.20;;;;;;;11.32;100.00;100427.34;4999515;28;20472;-53
2021/09/24 05:46:47;;;;;;;0.30;0.20;;;;;;;11.35;100.00;100421.94;4998821;28;20461;-53
2021/09/24 05:49:14;;;;;;;0.30;0.20;;;;;;;11.42;100.00;100428.84;5005097;28;20492;-54
2021/09/24 05:51:40;;;;;;;0.30;0.30;;;;;;;11.56;100.00;100426.63;5007028;28;20506;-53
2021/09/24 05:54:07;;;;;;;0.30;0.20;;;;;;;11.56;100.00;100423.97;5003875;28;20931;-53
2021/09/24 05:56:34;;;;;;;0.30;0.20;;;;;;;11.71;100.00;100425.28;5004126;28;20903;-54
2021/09/24 05:59:00;;;;;;;0.30;0.20;;;;;;;11.80;100.00;100419.72;5002855;28;20453;-54
2021/09/24 06:01:27;;;;;;;0.30;0.20;;;;;;;11.86;100.00;100420.38;5005286;28;20508;-54
2021/09/24 06:03:54;;;;;;;0.30;0.20;;;;;;;12.08;100.00;100427.69;5000778;28;20863;-54
2021/09/24 06:06:21;;;;;;;0.40;0.40;;;;;;;12.17;100.00;100416.72;4998699;28;20453;-53
2021/09/24 06:08:50;;;;;;;0.30;0.20;;;;;;;12.30;100.00;100420.72;5003376;28;20947;-54
2021/09/24 06:11:18;;;;;;;0.30;0.20;;;;;;;12.43;100.00;100421.16;5005472;28;20890;-54
2021/09/24 06:13:45;;;;;;;0.30;0.20;;;;;;;12.61;100.00;100425.00;5001325;28;21001;-54
2021/09/24 06:16:12;;;;;;;0.30;0.20;;;;;;;12.70;100.00;100424.69;4998492;28;20995;-54
2021/09/24 06:18:39;;;;;;;0.30;0.20;;;;;;;12.89;100.00;100431.13;5002372;28;20943;-54
2021/09/24 06:21:06;;;;;;;0.30;0.30;;;;;;;13.03;100.00;100423.50;5005330;28;20472;-54
2021/09/24 06:23:33;;;;;;;0.30;0.20;;;;;;;13.10;100.00;100417.91;5002433;28;20839;-54
2021/09/24 06:26:00;;;;;;;0.30;0.30;;;;;;;13.17;100.00;100420.31;5002038;28;20506;-54
2021/09/24 06:28:28;;;;;;;0.30;0.20;;;;;;;13.31;100.00;100426.03;5005291;28;20511;-54
2021/09/24 06:30:57;;;;;;;0.40;0.30;;;;;;;13.38;100.00;100426.66;5007628;28;20492;-53
2021/09/24 06:33:25;;;;;;;0.30;0.20;;;;;;;13.36;100.00;100427.66;5005905;28;20853;-54
2021/09/24 06:35:52;;;;;;;0.40;0.20;;;;;;;13.68;100.00;100434.41;5002104;28;20869;-54
2021/09/24 06:38:19;;;;;;;0.40;0.20;;;;;;;13.77;100.00;100428.72;5004254;28;20461;-53
2021/09/24 06:40:46;;;;;;;6.00;2.93;;;;;;;13.82;100.00;100448.09;5008593;28;20449;-54
2021/09/24 06:43:13;;;;;;;0.30;0.20;;;;;;;13.83;100.00;100444.50;5006189;28;21051;-54
2021/09/24 06:45:39;;;;;;;0.30;0.20;;;;;;;13.92;100.00;100442.34;5001920;28;20460;-54
2021/09/24 06:48:06;;;;;;;0.40;0.40;;;;;;;14.12;100.00;100441.56;5004286;28;20450;-56
2021/09/24 06:50:34;;;;;;;0.40;0.20;;;;;;;14.18;100.00;100437.75;5006835;28;20891;-56
2021/09/24 06:53:02;;;;;;;0.30;0.20;;;;;;;14.36;100.00;100438.78;5015181;28;20472;-56
2021/09/24 06:55:29;;;;;;;0.40;0.30;;;;;;;14.37;100.00;100440.53;5002165;28;20510;-56
2021/09/24 06:57:57;;;;;;;0.30;0.20;;;;;;;14.52;100.00;100439.91;5014712;28;20538;-56
2021/09/24 07:00:25;;;;;;;0.60;0.60;;;;;;;14.46;100.00;100425.00;5003602;28;20449;-56
2021/09/24 07:02:52;;;;;;;0.40;0.30;;;;;;;14.56;100.00;100429.97;5004397;28;20456;-56
2021/09/24 07:05:19;;;;;;;0.50;0.40;;;;;;;14.61;100.00;100428.84;5003970;28;20457;-56
2021/09/24 07:07:45;;;;;;;0.30;0.20;;;;;;;14.66;100.00;100429.50;5004026;28;20507;-56
2021/09/24 07:10:13;;;;;;;0.40;0.20;;;;;;;14.71;100.00;100432.00;5004557;28;20484;-56
2021/09/24 07:12:41;;;;;;;0.40;0.30;;;;;;;14.88;100.00;100437.47;5004851;28;20449;-56
2021/09/24 07:15:09;;;;;;;0.40;0.40;;;;;;;15.08;100.00;100432.13;4992511;28;20461;-56
2021/09/24 07:17:36;;;;;;;0.37;0.20;;;;;;;15.30;100.00;100441.84;5005588;28;20453;-56
2021/09/24 07:20:05;;;;;;;0.40;0.30;;;;;;;15.35;100.00;100434.44;5011856;28;20516;-56
2021/09/24 07:22:32;;;;;;;0.30;0.20;;;;;;;15.57;100.00;100439.69;5013103;28;20519;-56
2021/09/24 07:24:59;;;;;;;0.40;0.30;;;;;;;15.66;100.00;100447.34;5007830;28;20480;-56
2021/09/24 07:27:26;;;;;;;31.53;1.50;;;;;;;15.77;100.00;100434.31;5006392;28;20454;-56
2021/09/24 07:29:53;;;;;;;0.37;0.20;;;;;;;15.92;100.00;100444.31;5012428;28;20492;-56
2021/09/24 07:32:19;;;;;;;0.50;0.50;;;;;;;15.93;100.00;100448.72;5005603;28;20458;-56
2021/09/24 07:34:46;;;;;;;4.20;0.60;;;;;;;16.04;100.00;100439.28;5011846;28;20476;-56
2021/09/24 07:37:13;;;;;;;0.40;0.20;;;;;;;16.06;100.00;100438.28;5010054;28;20453;-56
2021/09/24 07:39:40;;;;;;;0.40;0.20;;;;;;;16.22;100.00;100441.06;5003471;28;20460;-56
2021/09/24 07:42:07;;;;;;;0.40;0.20;;;;;;;16.29;100.00;100437.13;5003889;28;20963;-56
2021/09/24 07:44:35;;;;;;;0.40;0.30;;;;;;;16.39;100.00;100440.22;5009979;28;20986;-56
2021/09/24 07:47:02;;;;;;;0.40;0.20;;;;;;;16.48;100.00;100437.94;5011127;28;20453;-56
2021/09/24 07:49:29;;;;;;;0.40;0.20;;;;;;;16.62;100.00;100437.25;5003673;28;20457;-56
2021/09/24 07:51:55;;;;;;;0.40;0.20;;;;;;;16.74;100.00;100425.91;5014238;28;21008;-56
2021/09/24 07:54:24;;;;;;;0.40;0.30;;;;;;;16.78;100.00;100432.00;5004637;28;20524;-55
2021/09/24 07:56:51;;;;;;;0.40;0.20;;;;;;;16.94;100.00;100434.75;5009548;28;20452;-55
2021/09/24 07:59:21;;;;;;;0.40;0.30;;;;;;;16.95;100.00;100431.97;5002860;28;20453;-55
2021/09/24 08:01:47;;;;;;;0.40;0.30;;;;;;;17.08;100.00;100433.06;5007079;28;20450;-55
2021/09/24 08:04:14;;;;;;;0.40;0.20;;;;;;;17.25;100.00;100433.97;5004741;28;20472;-54
2021/09/24 08:06:41;;;;;;;0.40;0.20;;;;;;;17.33;100.00;100439.81;5000448;28;20511;-55
2021/09/24 08:09:07;;;;;;;0.40;0.20;;;;;;;17.38;100.00;100432.34;5002342;28;20508;-54
2021/09/24 08:11:34;;;;;;;6.13;1.90;;;;;;;17.29;100.00;100432.88;5006812;28;20493;-54
2021/09/24 08:14:02;;;;;;;0.40;0.20;;;;;;;17.55;99.85;100428.78;5005010;28;20921;-55
2021/09/24 08:16:28;;;;;;;2.83;2.73;;;;;;;17.80;99.22;100433.66;5000007;28;20988;-55
2021/09/24 08:18:55;;;;;;;0.57;0.57;;;;;;;17.88;98.87;100426.91;5000368;28;20453;-54
2021/09/24 08:21:23;;;;;;;0.40;0.30;;;;;;;18.00;99.11;100436.09;5006902;28;20449;-55
2021/09/24 08:23:54;;;;;;;0.40;0.20;;;;;;;18.16;97.77;100436.97;5005222;28;20530;-55
2021/09/24 08:26:22;;;;;;;0.50;0.37;;;;;;;18.14;97.33;100435.31;5000033;28;20862;-54
2021/09/24 08:28:50;;;;;;;0.40;0.20;;;;;;;18.43;97.70;100437.19;5000679;28;20461;-54
2021/09/24 08:31:17;;;;;;;0.40;0.20;;;;;;;18.49;96.73;100438.63;5006451;28;20856;-55
2021/09/24 08:33:46;;;;;;;0.40;0.30;;;;;;;18.59;95.64;100434.44;5006261;28;20527;-54
2021/09/24 08:36:14;;;;;;;0.40;0.20;;;;;;;18.68;96.29;100433.06;5005449;28;20596;-54
2021/09/24 08:38:40;;;;;;;0.40;0.30;;;;;;;19.07;94.90;100433.34;5006492;28;20460;-55
2021/09/24 08:41:07;;;;;;;0.60;0.60;;;;;;;18.80;95.13;100427.81;5000109;28;20448;-55
2021/09/24 08:43:34;;;;;;;0.40;0.27;;;;;;;18.64;95.72;100427.88;4999460;28;20473;-54
2021/09/24 08:46:01;;;;;;;0.40;0.20;;;;;;;18.97;94.03;100428.63;5005497;28;20453;-55
2021/09/24 08:48:28;;;;;;;0.40;0.20;;;;;;;19.12;94.77;100427.69;5006120;28;20448;-55
2021/09/24 08:50:55;;;;;;;0.40;0.20;;;;;;;19.27;92.91;100425.84;5001528;28;20488;-54
2021/09/24 08:53:22;;;;;;;0.40;0.27;;;;;;;19.35;92.26;100421.72;5010922;28;20472;-55
2021/09/24 08:55:49;;;;;;;0.40;0.20;;;;;;;19.43;93.51;100419.41;5001883;28;20876;-54
2021/09/24 08:58:16;;;;;;;0.40;0.20;;;;;;;19.61;91.14;100419.25;5008878;28;20519;-55
2021/09/24 09:00:43;;;;;;;0.90;0.90;;;;;;;19.37;91.30;100416.25;5002064;28;20860;-55
2021/09/24 09:03:18;;;;;;;0.40;0.20;;;;;;;19.48;91.37;100409.22;4999594;28;20470;-55
2021/09/24 09:05:51;;;;;;;0.40;0.20;;;;;;;19.54;90.96;100407.94;5002497;28;20824;-55
2021/09/24 09:08:23;;;;;;;0.50;0.40;;;;;;;19.88;89.61;100401.28;5006191;28;20533;-54
2021/09/24 09:10:59;;;;;;;0.40;0.20;;;;;;;20.08;88.38;100403.50;5005225;28;20589;-55
2021/09/24 09:13:42;;;;;;;0.40;0.20;;;;;;;20.06;89.39;100397.34;5005593;28;20465;-55
2021/09/24 09:16:26;;;;;;;0.40;0.20;;;;;;;20.12;88.75;100404.16;5006083;28;21025;-54
2021/09/24 09:19:16;;;;;;;0.40;0.20;;;;;;;20.33;87.14;100401.88;5004712;28;20478;-54
2021/09/24 09:21:46;;;;;;;0.40;0.20;;;;;;;20.58;85.79;100393.91;5004333;28;20516;-55
2021/09/24 09:24:25;;;;;;;0.50;0.43;;;;;;;20.30;86.77;100402.09;5004651;28;20542;-54
2021/09/24 09:27:18;;;;;;;0.40;0.20;;;;;;;20.45;86.36;100401.09;5003645;28;20452;-55
2021/09/24 09:30:01;;;;;;;0.40;0.30;;;;;;;20.61;86.26;100399.06;5004557;28;20454;-55
2021/09/24 09:32:28;;;;;;;0.40;0.20;;;;;;;20.67;86.15;100400.47;5005907;28;20454;-55
2021/09/24 09:34:56;;;;;;;0.40;0.20;;;;;;;20.68;85.04;100399.50;5001706;28;20981;-55
2021/09/24 09:37:22;;;;;;;0.40;0.20;;;;;;;20.84;85.79;100411.00;4999261;28;20872;-55
2021/09/24 09:40:04;;;;;;;0.40;0.30;;;;;;;21.05;84.21;100405.06;5001826;28;20449;-55
2021/09/24 09:42:36;;;;;;;0.40;0.30;;;;;;;20.86;84.51;100406.38;5005802;28;20507;-55
2021/09/24 09:45:05;;;;;;;0.40;0.20;;;;;;;20.89;85.06;100407.97;5005685;28;20954;-55
2021/09/24 09:47:34;;;;;;;0.40;0.20;;;;;;;20.49;86.48;100409.84;4999846;28;21012;-54
2021/09/24 09:50:22;;;;;;;0.40;0.20;;;;;;;20.38;86.90;100410.53;4998893;28;20819;-54
2021/09/24 09:53:00;;;;;;;0.40;0.30;;;;;;;20.67;85.47;100404.03;5012277;28;20448;-55
2021/09/24 09:55:30;;;;;;;0.40;0.30;;;;;;;20.97;85.60;100405.63;4999042;28;20946;-54
2021/09/24 09:57:59;;;;;;;0.40;0.30;;;;;;;21.08;83.88;100404.84;5011922;28;20449;-54
2021/09/24 10:00:29;;;;;;;0.50;0.30;;;;;;;20.86;85.41;100395.56;5012279;28;20456;-55
2021/09/24 10:03:09;;;;;;;0.50;0.30;;;;;;;21.21;83.99;100392.19;5001485;28;20504;-55
2021/09/24 10:05:42;;;;;;;0.40;0.30;;;;;;;21.41;83.70;100396.22;5006334;28;20544;-55
2021/09/24 10:08:18;;;;;;;1.13;0.50;;;;;;;21.48;82.71;100398.38;5009161;28;21009;-55
2021/09/24 10:11:13;;;;;;;0.40;0.20;;;;;;;21.72;81.80;100401.13;5007877;28;20538;-55
2021/09/24 10:13:54;;;;;;;0.40;0.20;;;;;;;22.15;80.66;100398.84;5006414;28;21062;-54
2021/09/24 10:16:26;;;;;;;0.40;0.20;;;;;;;22.12;80.53;100403.63;5008798;28;20496;-55
2021/09/24 10:18:53;;;;;;;0.40;0.27;;;;;;;22.23;79.71;100405.56;5006621;28;20483;-55
2021/09/24 10:21:21;;;;;;;0.83;0.60;;;;;;;21.83;80.34;100408.47;5002354;28;20460;-55
2021/09/24 10:23:48;;;;;;;0.87;0.87;;;;;;;22.03;80.66;100401.56;5002646;28;20469;-55
2021/09/24 10:26:26;;;;;;;0.80;0.80;;;;;;;22.22;79.77;100401.13;5008640;28;20947;-55
2021/09/24 10:29:15;;;;;;;0.40;0.20;;;;;;;22.52;80.58;100415.03;5007767;28;20487;-55
2021/09/24 10:31:48;;;;;;;0.40;0.20;;;;;;;22.55;78.21;100403.09;4998502;28;20529;-55
2021/09/24 10:34:17;;;;;;;1.43;0.70;;;;;;;22.45;78.54;100400.22;5007353;28;20466;-55
2021/09/24 10:36:50;;;;;;;0.40;0.30;;;;;;;22.52;77.97;100414.19;5007666;28;20424;-55
2021/09/24 10:39:29;;;;;;;0.40;0.20;;;;;;;22.39;79.10;100406.97;5007549;28;20428;-55
2021/09/24 10:42:26;;;;;;;0.40;0.20;;;;;;;21.90;80.17;100415.16;5008518;28;20452;-55
2021/09/24 10:45:12;;;;;;;0.40;0.30;;;;;;;21.71;80.98;100403.97;5007746;28;20909;-55
2021/09/24 10:47:51;;;;;;;0.40;0.20;;;;;;;21.58;80.05;100406.69;5006666;28;20450;-55
2021/09/24 10:50:33;;;;;;;6.00;1.53;;;;;;;21.48;81.54;100402.91;5005257;28;20810;-54
2021/09/24 10:53:19;;;;;;;0.40;0.20;;;;;;;21.48;81.60;100401.06;5014661;28;20981;-55
2021/09/24 10:55:48;;;;;;;0.40;0.20;;;;;;;21.49;81.84;100401.94;5006776;28;20457;-55
2021/09/24 10:58:36;;;;;;;0.40;0.20;;;;;;;21.50;82.29;100398.25;5008392;28;20813;-55
2021/09/24 11:01:11;;;;;;;0.43;0.30;;;;;;;21.61;80.94;100405.59;5006452;28;20448;-55
2021/09/24 11:03:56;;;;;;;0.40;0.30;;;;;;;21.39;82.16;100401.75;5001457;28;20981;-54
2021/09/24 11:06:44;;;;;;;0.40;0.20;;;;;;;21.33;82.61;100396.75;5001088;28;20985;-55
2021/09/24 11:09:14;;;;;;;0.40;0.20;;;;;;;21.35;82.68;100394.81;5002921;28;20839;-55
2021/09/24 11:11:43;;;;;;;0.40;0.20;;;;;;;21.44;81.85;100402.28;5007764;28;20922;-55
2021/09/24 11:14:41;;;;;;;0.50;0.40;;;;;;;21.38;81.80;100399.13;5011362;22;21025;-49
2021/09/24 11:17:11;;;;;;;0.40;0.20;;;;;;;21.35;81.52;100402.06;4994505;28;20507;-51
2021/09/24 11:19:47;;;;;;;0.40;0.20;;;;;;;21.47;81.82;100399.34;5014295;28;20481;-49
2021/09/24 11:22:18;;;;;;;0.50;0.40;;;;;;;21.40;81.93;100399.91;5014609;28;20447;-49
2021/09/24 11:24:47;;;;;;;0.40;0.20;;;;;;;21.40;82.41;100395.38;5008337;28;20843;-49
2021/09/24 11:27:32;;;;;;;0.40;0.20;;;;;;;21.37;83.02;100398.25;5006470;28;20522;-49